createdAt,value
2023-04-30T00:01:10.512Z,6.07
2023-04-30T00:03:37.372Z,5.95
2023-04-30T00:06:04.052Z,5.85
2023-04-30T00:08:30.641Z,6.30
2023-04-30T00:10:57.364Z,6.32
2023-04-30T00:13:23.961Z,6.25
2023-04-30T00:15:51.360Z,6.57
2023-04-30T00:18:18.056Z,6.20
2023-04-30T00:20:44.634Z,6.97
2023-04-30T00:23:11.190Z,7.25
2023-04-30T00:25:37.726Z,7.15
2023-04-30T00:28:04.464Z,7.15
2023-04-30T00:30:55.914Z,6.62
2023-04-30T00:33:35.200Z,6.57
2023-04-30T00:36:01.846Z,6.80
2023-04-30T00:38:28.414Z,6.47
2023-04-30T00:40:55.049Z,7.07
2023-04-30T00:43:21.586Z,6.80
2023-04-30T00:45:48.152Z,6.55
2023-04-30T00:51:04.907Z,6.40
2023-04-30T00:53:32.362Z,5.72
2023-04-30T00:55:59.648Z,6.10
2023-04-30T00:58:26.335Z,6.45
2023-04-30T01:00:53.409Z,6.93
2023-04-30T01:03:20.493Z,6.35
2023-04-30T01:06:11.676Z,6.22
2023-04-30T01:08:53.836Z,6.18
2023-04-30T01:11:33.204Z,6.75
2023-04-30T01:14:10.545Z,5.57
2023-04-30T01:16:43.952Z,6.15
2023-04-30T01:19:36.785Z,6.22
2023-04-30T01:22:04.915Z,6.22
2023-04-30T01:25:08.447Z,5.80
2023-04-30T01:27:58.133Z,6.00
2023-04-30T01:30:26.009Z,5.60
2023-04-30T01:32:52.577Z,5.78
2023-04-30T01:35:19.179Z,6.12
2023-04-30T01:38:00.693Z,6.22
2023-04-30T01:40:46.628Z,5.50
2023-04-30T01:43:18.800Z,5.90
2023-04-30T01:46:07.334Z,5.95
2023-04-30T01:49:22.814Z,5.72
2023-04-30T01:51:57.425Z,5.35
2023-04-30T01:54:29.227Z,5.50
2023-04-30T01:57:05.092Z,5.40
2023-04-30T01:59:34.707Z,5.93
2023-04-30T02:02:02.160Z,5.40
2023-04-30T02:04:34.064Z,5.28
2023-04-30T02:07:01.183Z,5.62
2023-04-30T02:09:27.792Z,6.25
2023-04-30T02:11:54.319Z,5.85
2023-04-30T02:17:51.289Z,5.95
2023-04-30T02:20:22.702Z,6.40
2023-04-30T02:22:49.309Z,5.68
2023-04-30T02:25:16.051Z,5.97
2023-04-30T02:27:42.602Z,5.70
2023-04-30T02:30:09.374Z,5.90
2023-04-30T02:32:36.135Z,5.85
2023-04-30T02:35:02.743Z,5.85
2023-04-30T02:37:29.326Z,6.75
2023-04-30T02:39:56.230Z,5.75
2023-04-30T02:42:23.056Z,6.12
2023-04-30T02:44:49.653Z,6.28
2023-04-30T02:47:16.269Z,5.75
2023-04-30T02:50:42.796Z,6.15
2023-04-30T02:53:31.338Z,6.12
2023-04-30T02:55:59.194Z,6.00
2023-04-30T02:58:26.651Z,6.00
2023-04-30T03:00:53.283Z,6.40
2023-04-30T03:03:20.042Z,5.97
2023-04-30T03:05:46.714Z,6.03
2023-04-30T03:10:48.504Z,6.37
2023-04-30T03:13:15.070Z,5.95
2023-04-30T03:15:41.602Z,6.05
2023-04-30T03:18:27.182Z,5.55
2023-04-30T03:21:20.730Z,6.50
2023-04-30T03:24:09.207Z,6.18
2023-04-30T03:26:35.975Z,6.50
2023-04-30T03:29:02.638Z,6.18
2023-04-30T03:31:29.259Z,7.25
2023-04-30T03:33:56.113Z,7.10
2023-04-30T03:36:22.787Z,7.93
2023-04-30T03:38:49.388Z,9.52
2023-04-30T03:41:16.024Z,8.02
2023-04-30T03:43:42.614Z,7.97
2023-04-30T03:46:09.243Z,7.85
2023-04-30T03:48:35.969Z,8.30
2023-04-30T03:51:02.661Z,9.00
2023-04-30T03:54:16.068Z,9.25
2023-04-30T03:56:46.372Z,9.70
2023-04-30T03:59:18.213Z,10.45
2023-04-30T04:01:44.884Z,11.23
2023-04-30T04:04:11.795Z,11.48
2023-04-30T04:06:38.382Z,11.57
2023-04-30T04:09:05.109Z,12.77
2023-04-30T04:11:31.896Z,12.30
2023-04-30T04:16:47.279Z,11.55
2023-04-30T04:19:14.294Z,11.90
2023-04-30T04:21:40.896Z,12.73
2023-04-30T04:24:08.786Z,12.65
2023-04-30T04:26:36.510Z,13.43
2023-04-30T04:29:34.622Z,14.02
2023-04-30T04:32:19.623Z,14.35
2023-04-30T04:34:46.207Z,14.87
2023-04-30T04:37:12.788Z,14.38
2023-04-30T04:39:39.335Z,14.95
2023-04-30T04:42:05.878Z,15.00
2023-04-30T04:44:32.459Z,14.98
2023-04-30T04:49:34.276Z,14.95
2023-04-30T04:52:02.016Z,14.45
2023-04-30T04:54:34.741Z,14.02
2023-04-30T04:57:01.459Z,14.87
2023-04-30T04:59:28.014Z,14.13
2023-04-30T05:02:06.562Z,13.93
2023-04-30T05:04:58.160Z,14.25
2023-04-30T05:07:52.442Z,13.70
2023-04-30T05:10:19.083Z,14.20
2023-04-30T05:12:45.750Z,13.75
2023-04-30T05:15:12.338Z,12.77
2023-04-30T05:17:38.954Z,13.57
2023-04-30T05:20:07.444Z,13.32
2023-04-30T05:22:49.158Z,13.20
2023-04-30T05:25:15.890Z,13.10
2023-04-30T05:27:42.488Z,13.27
2023-04-30T05:30:09.948Z,12.88
2023-04-30T05:33:01.504Z,12.23
2023-04-30T05:36:02.318Z,11.95
2023-04-30T05:38:29.004Z,12.93
2023-04-30T05:40:55.597Z,12.23
2023-04-30T05:43:22.159Z,12.57
2023-04-30T05:45:49.004Z,12.45
2023-04-30T05:48:15.659Z,12.10
2023-04-30T05:50:42.500Z,11.93
2023-04-30T05:53:09.103Z,11.98
2023-04-30T05:55:36.361Z,11.52
2023-04-30T05:58:03.002Z,10.70
2023-04-30T06:00:29.565Z,10.63
2023-04-30T06:02:56.317Z,11.18
2023-04-30T06:05:23.077Z,11.57
2023-04-30T06:07:49.679Z,11.15
2023-04-30T06:10:16.280Z,9.93
2023-04-30T06:12:42.846Z,10.60
2023-04-30T06:15:09.758Z,10.50
2023-04-30T06:17:36.439Z,9.75
2023-04-30T06:20:06.998Z,10.02
2023-04-30T06:26:15.365Z,9.00
2023-04-30T06:28:41.940Z,8.70
2023-04-30T06:31:08.758Z,9.05
2023-04-30T06:33:35.363Z,9.10
2023-04-30T06:36:14.002Z,9.18
2023-04-30T06:38:41.671Z,8.63
2023-04-30T06:41:08.626Z,8.10
2023-04-30T06:43:35.371Z,8.40
2023-04-30T06:46:02.082Z,8.30
2023-04-30T06:48:28.663Z,7.62
2023-04-30T06:50:55.381Z,7.43
2023-04-30T06:53:21.986Z,7.12
2023-04-30T06:55:48.867Z,7.45
2023-04-30T06:58:15.456Z,6.85
2023-04-30T07:00:42.945Z,6.85
2023-04-30T07:03:09.763Z,6.80
2023-04-30T07:05:36.558Z,6.80
2023-04-30T07:08:04.044Z,7.37
2023-04-30T07:10:31.721Z,6.55
2023-04-30T07:12:59.268Z,7.05
2023-04-30T07:15:26.089Z,6.43
2023-04-30T07:17:53.033Z,6.70
2023-04-30T07:20:19.692Z,6.15
2023-04-30T07:22:46.541Z,5.82
2023-04-30T07:25:13.970Z,5.80
2023-04-30T07:27:41.012Z,5.35
2023-04-30T07:30:11.688Z,5.22
2023-04-30T07:32:41.043Z,4.75
2023-04-30T07:35:08.009Z,5.28
2023-04-30T07:37:36.048Z,4.20
2023-04-30T07:40:04.171Z,3.75
2023-04-30T07:42:30.736Z,4.18
2023-04-30T07:45:04.848Z,4.80
2023-04-30T07:47:31.429Z,3.78
2023-04-30T07:49:58.492Z,3.72
2023-04-30T07:52:25.085Z,3.40
2023-04-30T07:54:51.898Z,3.30
2023-04-30T07:57:19.225Z,3.95
2023-04-30T07:59:45.866Z,3.55
2023-04-30T08:02:12.573Z,2.72
2023-04-30T08:04:39.195Z,2.92
2023-04-30T08:07:05.896Z,2.70
2023-04-30T08:09:32.761Z,2.60
2023-04-30T08:11:59.390Z,2.47
2023-04-30T08:14:26.006Z,2.42
2023-04-30T08:16:52.956Z,2.50
2023-04-30T08:19:19.569Z,2.37
2023-04-30T08:24:21.438Z,2.25
2023-04-30T08:26:48.212Z,2.10
2023-04-30T08:29:14.754Z,2.50
2023-04-30T08:31:41.496Z,2.50
2023-04-30T08:34:08.139Z,2.15
2023-04-30T08:37:02.569Z,2.33
2023-04-30T08:43:08.785Z,2.10
2023-04-30T08:45:41.348Z,1.80
2023-04-30T08:48:15.211Z,1.65
2023-04-30T08:50:41.912Z,2.05
2023-04-30T08:53:11.087Z,2.10
2023-04-30T08:55:39.761Z,1.45
2023-04-30T08:58:08.364Z,1.33
2023-04-30T09:00:38.087Z,2.08
2023-04-30T09:03:05.786Z,1.75
2023-04-30T09:05:32.469Z,2.10
2023-04-30T09:08:03.676Z,1.70
2023-04-30T09:10:34.751Z,1.95
2023-04-30T09:13:09.295Z,1.33
2023-04-30T09:15:38.737Z,1.60
2023-04-30T09:18:19.998Z,1.80
2023-04-30T09:21:03.329Z,2.00
2023-04-30T09:23:30.779Z,2.03
2023-04-30T09:25:57.594Z,1.87
2023-04-30T09:28:26.522Z,1.80
2023-04-30T09:30:53.520Z,1.95
2023-04-30T09:33:20.511Z,1.92
2023-04-30T09:35:47.224Z,2.00
2023-04-30T09:38:28.172Z,2.03
2023-04-30T09:40:55.093Z,1.90
2023-04-30T09:43:21.737Z,1.80
2023-04-30T09:45:52.424Z,2.05
2023-04-30T09:48:24.564Z,1.92
2023-04-30T09:50:54.979Z,1.70
2023-04-30T09:53:24.287Z,1.60
2023-04-30T09:55:51.660Z,1.85
2023-04-30T09:58:19.703Z,1.73
2023-04-30T10:00:49.449Z,1.90
2023-04-30T10:03:16.900Z,1.87
2023-04-30T10:05:48.672Z,1.90
2023-04-30T10:08:21.451Z,1.77
2023-04-30T10:13:21.882Z,1.25
2023-04-30T10:15:54.428Z,1.20
2023-04-30T10:18:31.298Z,1.73
2023-04-30T10:21:02.610Z,1.55
2023-04-30T10:23:30.450Z,1.73
2023-04-30T10:28:39.094Z,1.80
2023-04-30T10:31:07.246Z,1.60
2023-04-30T10:33:52.262Z,1.60
2023-04-30T10:36:33.894Z,1.45
2023-04-30T10:39:01.619Z,2.15
2023-04-30T10:42:18.236Z,1.80
2023-04-30T10:45:12.811Z,1.80
2023-04-30T10:47:46.190Z,1.60
2023-04-30T10:50:13.516Z,1.80
2023-04-30T10:52:40.196Z,1.55
2023-04-30T10:55:08.826Z,1.55
2023-04-30T10:57:43.835Z,1.92
2023-04-30T11:00:10.546Z,1.73
2023-04-30T11:02:44.822Z,1.92
2023-04-30T11:05:14.432Z,1.60
2023-04-30T11:07:49.193Z,1.60
2023-04-30T11:10:16.570Z,2.10
2023-04-30T11:12:51.270Z,1.50
2023-04-30T11:15:20.222Z,1.50
2023-04-30T11:17:49.497Z,1.60
2023-04-30T11:20:22.969Z,1.65
2023-04-30T11:23:14.249Z,1.87
2023-04-30T11:25:46.571Z,1.45
2023-04-30T11:28:34.729Z,1.73
2023-04-30T11:31:02.154Z,1.48
2023-04-30T11:33:44.249Z,1.50
2023-04-30T11:36:10.805Z,1.80
2023-04-30T11:38:40.780Z,1.37
2023-04-30T11:41:23.368Z,1.70
2023-04-30T11:43:49.953Z,1.60
2023-04-30T11:46:35.084Z,1.55
2023-04-30T11:49:01.841Z,1.70
2023-04-30T11:51:28.656Z,1.65
2023-04-30T11:53:55.395Z,1.55
2023-04-30T11:56:24.130Z,2.08
2023-04-30T11:58:52.765Z,1.70
2023-04-30T12:01:21.026Z,1.35
2023-04-30T12:03:49.947Z,1.20
2023-04-30T12:06:28.017Z,1.12
2023-04-30T12:08:56.815Z,1.40
2023-04-30T12:11:27.642Z,1.60
2023-04-30T12:13:55.872Z,1.30
2023-04-30T12:16:25.268Z,1.30
2023-04-30T12:18:52.845Z,1.48
2023-04-30T12:21:21.703Z,1.35
2023-04-30T12:23:48.378Z,1.20
2023-04-30T12:26:15.098Z,1.30
2023-04-30T12:28:41.718Z,1.15
2023-04-30T12:31:08.707Z,1.60
2023-04-30T12:33:37.254Z,1.30
2023-04-30T12:36:04.160Z,1.35
2023-04-30T12:38:30.753Z,1.10
2023-04-30T12:40:57.606Z,1.45
2023-04-30T12:43:24.173Z,1.60
2023-04-30T12:48:44.190Z,1.40
2023-04-30T12:51:11.478Z,1.40
2023-04-30T12:53:47.340Z,1.50
2023-04-30T12:56:16.483Z,1.30
2023-04-30T12:58:49.837Z,1.20
2023-04-30T13:02:14.281Z,1.15
2023-04-30T13:05:16.195Z,1.50
2023-04-30T13:07:42.836Z,1.17
2023-04-30T13:10:09.784Z,1.10
2023-04-30T13:12:36.423Z,1.20
2023-04-30T13:15:03.985Z,1.62
2023-04-30T13:17:30.582Z,1.15
2023-04-30T13:19:57.564Z,1.20
2023-04-30T13:22:29.467Z,1.20
2023-04-30T13:24:56.021Z,1.17
2023-04-30T13:27:22.586Z,1.30
2023-04-30T13:29:49.209Z,1.25
2023-04-30T13:32:17.088Z,1.10
2023-04-30T13:34:43.775Z,1.20
2023-04-30T13:37:10.744Z,1.15
2023-04-30T13:39:37.267Z,1.15
2023-04-30T13:42:04.544Z,1.20
2023-04-30T13:44:33.858Z,1.20
2023-04-30T13:47:00.632Z,1.25
2023-04-30T13:49:27.327Z,0.90
2023-04-30T13:52:40.697Z,1.12
2023-04-30T13:55:52.740Z,1.33
2023-04-30T13:58:19.473Z,1.40
2023-04-30T14:00:46.299Z,1.30
2023-04-30T14:03:14.169Z,1.00
2023-04-30T14:05:40.910Z,1.30
2023-04-30T14:08:07.463Z,1.20
2023-04-30T14:10:34.029Z,1.08
2023-04-30T14:13:00.735Z,1.27
2023-04-30T14:15:30.596Z,0.98
2023-04-30T14:17:57.263Z,1.08
2023-04-30T14:20:24.916Z,1.20
2023-04-30T14:22:51.542Z,1.10
2023-04-30T14:25:18.243Z,0.90
2023-04-30T14:27:44.816Z,1.42
2023-04-30T14:30:11.986Z,1.05
2023-04-30T14:32:38.628Z,0.95
2023-04-30T14:35:05.981Z,1.00
2023-04-30T14:37:32.762Z,1.02
2023-04-30T14:40:00.420Z,1.00
2023-04-30T14:42:26.998Z,1.00
2023-04-30T14:44:53.541Z,1.10
2023-04-30T14:47:21.627Z,1.17
2023-04-30T14:49:50.263Z,1.00
2023-04-30T14:52:16.840Z,1.30
2023-04-30T14:54:43.495Z,0.90
2023-04-30T14:57:10.151Z,1.00
2023-04-30T14:59:38.846Z,0.98
2023-04-30T15:02:05.870Z,1.10
2023-04-30T15:04:32.484Z,1.00
2023-04-30T15:06:59.033Z,0.90
2023-04-30T15:09:25.609Z,1.30
2023-04-30T15:11:52.242Z,1.00
2023-04-30T15:14:18.876Z,0.93
2023-04-30T15:16:45.690Z,1.05
2023-04-30T15:19:12.360Z,1.10
2023-04-30T15:21:39.115Z,1.10
2023-04-30T15:24:06.370Z,1.58
2023-04-30T15:26:33.070Z,2.00
2023-04-30T15:28:59.918Z,2.15
2023-04-30T15:31:26.922Z,2.17
2023-04-30T15:33:53.596Z,2.25
2023-04-30T15:36:23.287Z,1.87
2023-04-30T15:38:49.868Z,2.40
2023-04-30T15:41:16.423Z,2.00
2023-04-30T15:43:42.986Z,1.80
2023-04-30T15:46:09.686Z,1.80
2023-04-30T15:48:36.296Z,1.70
2023-04-30T15:51:03.220Z,1.70
2023-04-30T15:53:29.829Z,1.70
2023-04-30T15:55:57.374Z,1.85
2023-04-30T15:58:23.949Z,1.48
2023-04-30T16:00:50.498Z,1.70
2023-04-30T16:03:17.223Z,1.73
2023-04-30T16:05:43.976Z,1.70
2023-04-30T16:08:10.811Z,1.80
2023-04-30T16:10:38.714Z,1.60
2023-04-30T16:13:05.471Z,1.80
2023-04-30T16:15:32.448Z,2.10
2023-04-30T16:17:59.164Z,1.73
2023-04-30T16:20:27.354Z,1.70
2023-04-30T16:22:54.871Z,1.80
2023-04-30T16:25:22.226Z,1.58
2023-04-30T16:27:49.746Z,2.00
2023-04-30T16:30:16.474Z,2.10
2023-04-30T16:32:43.129Z,2.53
2023-04-30T16:35:10.213Z,2.40
2023-04-30T16:37:36.767Z,2.25
2023-04-30T16:40:03.602Z,2.22
2023-04-30T16:42:30.888Z,2.28
2023-04-30T16:44:57.479Z,2.40
2023-04-30T16:47:24.117Z,2.42
2023-04-30T16:49:50.748Z,2.30
2023-04-30T16:52:17.389Z,2.00
2023-04-30T16:54:44.198Z,2.25
2023-04-30T16:57:11.062Z,2.03
2023-04-30T16:59:37.630Z,1.85
2023-04-30T17:02:04.830Z,2.15
2023-04-30T17:04:31.684Z,2.62
2023-04-30T17:06:59.197Z,2.50
2023-04-30T17:09:32.302Z,1.95
2023-04-30T17:11:58.874Z,2.40
2023-04-30T17:14:25.451Z,2.15
2023-04-30T17:16:52.457Z,2.20
2023-04-30T17:19:19.096Z,2.10
2023-04-30T17:21:45.860Z,1.90
2023-04-30T17:24:12.591Z,2.00
2023-04-30T17:26:39.231Z,2.15
2023-04-30T17:29:06.283Z,1.80
2023-04-30T17:31:33.244Z,1.90
2023-04-30T17:34:03.206Z,1.90
2023-04-30T17:36:30.360Z,2.22
2023-04-30T17:38:59.616Z,2.22
2023-04-30T17:41:26.413Z,2.10
2023-04-30T17:43:52.976Z,2.05
2023-04-30T17:46:19.635Z,2.25
2023-04-30T17:48:47.083Z,2.05
2023-04-30T17:51:13.714Z,2.03
2023-04-30T17:53:40.761Z,2.08
2023-04-30T17:56:08.741Z,2.35
2023-04-30T17:58:36.589Z,2.53
2023-04-30T18:01:05.588Z,2.42
2023-04-30T18:03:32.602Z,2.60
2023-04-30T18:05:59.344Z,3.35
2023-04-30T18:08:26.331Z,3.53
2023-04-30T18:10:53.178Z,3.60
2023-04-30T18:13:19.733Z,3.65
2023-04-30T18:18:21.657Z,4.15
2023-04-30T18:20:49.681Z,3.83
2023-04-30T18:23:16.611Z,3.22
2023-04-30T18:25:43.678Z,3.62
2023-04-30T18:33:41.666Z,3.20
2023-04-30T18:36:09.073Z,3.30
2023-04-30T18:38:35.625Z,3.47
2023-04-30T18:41:02.407Z,3.60
2023-04-30T18:43:28.985Z,3.50
2023-04-30T18:45:55.578Z,3.47
2023-04-30T18:48:23.046Z,3.40
2023-04-30T18:50:50.157Z,3.72
2023-04-30T18:53:17.386Z,4.20
2023-04-30T18:55:46.996Z,3.78
2023-04-30T18:58:13.800Z,4.47
2023-04-30T19:00:43.521Z,3.95
2023-04-30T19:03:10.398Z,3.83
2023-04-30T19:05:37.548Z,4.20
2023-04-30T19:08:04.331Z,4.12
2023-04-30T19:10:30.934Z,4.05
2023-04-30T19:12:57.482Z,4.32
2023-04-30T19:15:25.621Z,4.90
2023-04-30T19:17:52.271Z,4.55
2023-04-30T19:20:19.044Z,4.72
2023-04-30T19:22:45.653Z,5.43
2023-04-30T19:25:12.439Z,6.03
2023-04-30T19:27:39.176Z,6.12
2023-04-30T19:30:06.855Z,6.37
2023-04-30T19:32:33.473Z,5.93
2023-04-30T19:35:00.147Z,5.30
2023-04-30T19:37:26.856Z,4.80
2023-04-30T19:39:53.595Z,4.85
2023-04-30T19:42:20.423Z,4.70
2023-04-30T19:44:47.106Z,4.70
2023-04-30T19:47:13.788Z,5.00
2023-04-30T19:49:40.417Z,5.15
2023-04-30T19:52:08.031Z,6.05
2023-04-30T19:54:34.694Z,5.25
2023-04-30T19:57:02.129Z,6.57
2023-04-30T19:59:28.733Z,6.82
2023-04-30T20:01:55.378Z,7.43
2023-04-30T20:04:22.441Z,7.00
2023-04-30T20:06:56.001Z,6.15
2023-04-30T20:09:23.261Z,6.60
2023-04-30T20:11:51.607Z,6.78
2023-04-30T20:14:18.909Z,6.62
2023-04-30T20:16:46.470Z,8.50
2023-04-30T20:19:14.109Z,9.05
2023-04-30T20:21:40.698Z,7.97
2023-04-30T20:24:07.446Z,8.38
2023-04-30T20:26:34.525Z,7.28
2023-04-30T20:29:01.148Z,7.60
2023-04-30T20:31:31.269Z,7.18
2023-04-30T20:33:57.948Z,6.45
2023-04-30T20:36:24.696Z,7.25
2023-04-30T20:38:54.280Z,7.28
2023-04-30T20:41:39.487Z,6.75
2023-04-30T20:44:06.057Z,7.35
2023-04-30T20:46:33.340Z,7.53
2023-04-30T20:49:04.284Z,7.75
2023-04-30T20:51:31.258Z,7.97
2023-04-30T20:53:57.832Z,7.28
2023-04-30T20:56:24.474Z,6.87
2023-04-30T20:58:51.058Z,8.38
2023-04-30T21:01:17.646Z,8.65
2023-04-30T21:03:44.280Z,8.80
2023-04-30T21:06:11.383Z,8.15
2023-04-30T21:08:38.037Z,8.40
2023-04-30T21:11:04.614Z,7.50
2023-04-30T21:13:31.173Z,8.02
2023-04-30T21:15:57.999Z,8.63
2023-04-30T21:18:27.078Z,8.32
2023-04-30T21:20:53.821Z,8.75
2023-04-30T21:23:20.396Z,8.57
2023-04-30T21:28:35.706Z,7.68
2023-04-30T21:31:09.172Z,6.75
2023-04-30T21:33:37.388Z,7.75
2023-04-30T21:36:05.036Z,7.05
2023-04-30T21:38:31.780Z,7.00
2023-04-30T21:41:58.236Z,6.12
2023-04-30T21:44:50.481Z,6.65
2023-04-30T21:47:17.612Z,6.10
2023-04-30T21:49:44.218Z,6.00
2023-04-30T21:52:11.678Z,6.12
2023-04-30T21:54:38.308Z,5.75
2023-04-30T21:57:04.981Z,5.55
2023-04-30T22:02:20.019Z,5.43
2023-04-30T22:04:49.766Z,5.68
2023-04-30T22:07:16.376Z,5.43
2023-04-30T22:09:44.952Z,5.60
2023-04-30T22:12:12.161Z,6.10
2023-04-30T22:15:10.023Z,5.55
2023-04-30T22:18:15.998Z,5.93
2023-04-30T22:20:49.749Z,5.28
2023-04-30T22:23:17.349Z,5.15
2023-04-30T22:25:43.987Z,4.78
2023-04-30T22:28:10.642Z,4.82
2023-04-30T22:30:38.344Z,5.28
2023-04-30T22:33:05.470Z,5.10
2023-04-30T22:35:35.670Z,4.30
2023-04-30T22:38:03.504Z,4.15
2023-04-30T22:40:33.046Z,4.28
2023-04-30T22:43:00.693Z,4.12
2023-04-30T22:45:29.976Z,4.15
2023-04-30T22:47:59.406Z,4.28
2023-04-30T22:50:27.437Z,4.03
2023-04-30T22:52:56.251Z,3.87
2023-04-30T22:55:23.261Z,3.90
2023-04-30T22:57:49.809Z,4.22
2023-04-30T23:00:18.207Z,3.87
2023-04-30T23:02:44.789Z,4.22
2023-04-30T23:05:51.582Z,4.20
2023-04-30T23:08:46.153Z,4.03
2023-04-30T23:11:12.813Z,4.07
2023-04-30T23:13:39.415Z,3.78
2023-04-30T23:16:09.096Z,3.92
2023-04-30T23:18:38.980Z,3.70
2023-04-30T23:21:06.143Z,3.90
2023-04-30T23:23:51.174Z,3.62
2023-04-30T23:26:17.815Z,3.80
2023-04-30T23:28:44.398Z,4.25
2023-04-30T23:31:10.961Z,3.87
2023-04-30T23:33:37.707Z,3.80
2023-04-30T23:36:28.390Z,3.65
2023-04-30T23:39:13.508Z,3.67
2023-04-30T23:41:40.112Z,3.62
2023-04-30T23:44:06.768Z,3.62
2023-04-30T23:46:33.372Z,3.97
2023-04-30T23:49:00.059Z,3.60
2023-04-30T23:51:26.644Z,3.70
2023-04-30T23:56:41.683Z,3.70
2023-04-30T23:59:08.288Z,4.12
